createdAt,value
2023-04-27T00:01:47.848Z,11.13
2023-04-27T00:04:16.782Z,6.30
2023-04-27T00:06:44.618Z,9.67
2023-04-27T00:09:12.646Z,8.20
2023-04-27T00:11:41.909Z,10.90
2023-04-27T00:14:09.714Z,10.30
2023-04-27T00:16:37.556Z,12.87
2023-04-27T00:19:05.454Z,9.43
2023-04-27T00:21:33.364Z,12.73
2023-04-27T00:24:01.074Z,7.63
2023-04-27T00:26:28.757Z,12.30
2023-04-27T00:28:57.888Z,11.77
2023-04-27T00:31:25.793Z,11.10
2023-04-27T00:33:53.654Z,13.00
2023-04-27T00:36:21.421Z,9.93
2023-04-27T00:38:49.221Z,11.37
2023-04-27T00:41:16.908Z,11.17
2023-04-27T00:43:45.663Z,7.93
2023-04-27T00:46:15.275Z,10.87
2023-04-27T00:48:43.022Z,10.07
2023-04-27T00:51:10.701Z,8.57
2023-04-27T00:53:39.044Z,11.87
2023-04-27T00:56:08.078Z,9.50
2023-04-27T00:58:35.992Z,10.50
2023-04-27T01:01:04.053Z,11.97
2023-04-27T01:03:33.628Z,12.23
2023-04-27T01:06:02.013Z,10.50
2023-04-27T01:08:29.927Z,10.23
2023-04-27T01:10:57.612Z,11.50
2023-04-27T01:13:25.390Z,9.37
2023-04-27T01:15:53.043Z,6.73
2023-04-27T01:18:20.732Z,15.53
2023-04-27T01:20:49.839Z,13.57
2023-04-27T01:23:18.911Z,9.47
2023-04-27T01:25:46.555Z,8.87
2023-04-27T01:28:14.233Z,17.73
2023-04-27T01:30:41.950Z,12.20
2023-04-27T01:33:09.699Z,10.70
2023-04-27T01:35:37.418Z,9.73
2023-04-27T01:38:05.151Z,12.03
2023-04-27T01:40:34.210Z,11.67
2023-04-27T01:43:02.040Z,8.30
2023-04-27T01:45:29.866Z,9.70
2023-04-27T01:47:57.536Z,14.83
2023-04-27T01:50:25.268Z,7.77
2023-04-27T01:52:53.116Z,9.53
2023-04-27T01:55:21.081Z,10.50
2023-04-27T01:57:50.079Z,16.87
2023-04-27T02:00:18.600Z,8.40
2023-04-27T02:02:46.496Z,13.13
2023-04-27T02:05:14.223Z,9.10
2023-04-27T02:07:41.839Z,12.33
2023-04-27T02:10:10.413Z,9.67
2023-04-27T02:12:38.144Z,14.97
2023-04-27T02:15:08.981Z,12.93
2023-04-27T02:17:36.767Z,9.63
2023-04-27T02:20:06.599Z,10.73
2023-04-27T02:22:34.334Z,12.23
2023-04-27T02:25:01.987Z,7.37
2023-04-27T02:27:29.700Z,10.60
2023-04-27T02:29:57.941Z,11.37
2023-04-27T02:32:27.400Z,11.03
2023-04-27T02:34:56.735Z,10.40
2023-04-27T02:37:24.635Z,15.60
2023-04-27T02:39:52.369Z,9.40
2023-04-27T02:42:20.203Z,17.20
2023-04-27T02:44:48.017Z,10.47
2023-04-27T02:47:15.712Z,9.93
2023-04-27T02:49:44.913Z,15.03
2023-04-27T02:52:12.619Z,16.20
2023-04-27T02:54:40.498Z,16.27
2023-04-27T02:57:08.210Z,12.83
2023-04-27T02:59:36.256Z,9.50
2023-04-27T03:02:03.972Z,16.13
2023-04-27T03:04:31.762Z,14.30
2023-04-27T03:07:00.921Z,15.27
2023-04-27T03:09:28.577Z,16.33
2023-04-27T03:11:56.344Z,15.60
2023-04-27T03:14:24.082Z,9.57
2023-04-27T03:16:52.072Z,10.43
2023-04-27T03:19:19.837Z,12.37
2023-04-27T03:21:47.471Z,19.10
2023-04-27T03:24:16.612Z,9.50
2023-04-27T03:26:44.257Z,15.90
2023-04-27T03:29:12.122Z,12.33
2023-04-27T03:31:39.934Z,14.50
2023-04-27T03:34:07.669Z,12.77
2023-04-27T03:36:35.747Z,15.57
2023-04-27T03:39:03.780Z,12.50
2023-04-27T03:41:32.858Z,10.67
2023-04-27T03:44:00.756Z,14.13
2023-04-27T03:46:28.599Z,10.87
2023-04-27T03:48:56.393Z,11.53
2023-04-27T03:51:24.334Z,11.23
2023-04-27T03:53:52.090Z,11.07
2023-04-27T03:56:19.954Z,11.60
2023-04-27T03:58:48.939Z,9.43
2023-04-27T04:01:16.764Z,11.93
2023-04-27T04:03:44.572Z,14.10
2023-04-27T04:06:12.338Z,11.73
2023-04-27T04:08:39.999Z,9.93
2023-04-27T04:11:07.705Z,11.03
2023-04-27T04:13:36.060Z,9.47
2023-04-27T04:16:07.231Z,11.77
2023-04-27T04:18:35.114Z,7.53
2023-04-27T04:21:02.996Z,12.53
2023-04-27T04:23:30.815Z,11.87
2023-04-27T04:25:58.438Z,14.93
2023-04-27T04:28:26.439Z,13.03
2023-04-27T04:30:54.160Z,14.20
2023-04-27T04:33:24.309Z,15.07
2023-04-27T04:35:52.052Z,13.03
2023-04-27T04:38:19.698Z,14.50
2023-04-27T04:40:47.353Z,9.50
2023-04-27T04:43:15.025Z,11.43
2023-04-27T04:45:43.698Z,15.43
2023-04-27T04:48:11.456Z,9.10
2023-04-27T04:50:41.997Z,16.63
2023-04-27T04:53:09.778Z,11.57
2023-04-27T04:55:37.533Z,17.53
2023-04-27T04:58:05.302Z,9.20
2023-04-27T05:00:32.945Z,15.00
2023-04-27T05:03:01.170Z,14.77
2023-04-27T05:05:29.233Z,13.77
2023-04-27T05:07:58.303Z,11.83
2023-04-27T05:10:26.031Z,12.40
2023-04-27T05:12:53.890Z,14.07
2023-04-27T05:15:21.623Z,10.83
2023-04-27T05:17:49.401Z,10.73
2023-04-27T05:20:17.436Z,11.83
2023-04-27T05:22:45.179Z,12.83
2023-04-27T05:25:14.620Z,15.87
2023-04-27T05:27:42.656Z,15.17
2023-04-27T05:30:11.224Z,10.50
2023-04-27T05:32:39.626Z,11.63
2023-04-27T05:35:07.855Z,12.67
2023-04-27T05:37:35.689Z,16.63
2023-04-27T05:40:04.120Z,17.10
2023-04-27T05:42:34.136Z,13.67
2023-04-27T05:45:01.904Z,16.60
2023-04-27T05:47:29.719Z,17.23
2023-04-27T05:49:57.397Z,13.80
2023-04-27T05:52:30.733Z,11.97
2023-04-27T05:54:59.366Z,10.50
2023-04-27T05:57:27.279Z,11.27
2023-04-27T05:59:56.650Z,8.83
2023-04-27T06:02:24.692Z,6.97
2023-04-27T06:04:52.499Z,7.10
2023-04-27T06:07:20.257Z,11.57
2023-04-27T06:09:48.039Z,5.63
2023-04-27T06:12:15.789Z,8.60
2023-04-27T06:14:43.566Z,12.60
2023-04-27T06:17:12.668Z,7.17
2023-04-27T06:19:40.604Z,9.17
2023-04-27T06:22:08.442Z,11.70
2023-04-27T06:24:36.973Z,10.17
2023-04-27T06:27:04.840Z,10.47
2023-04-27T06:29:32.530Z,6.00
2023-04-27T06:32:00.487Z,6.57
2023-04-27T06:34:29.610Z,6.60
2023-04-27T06:36:57.270Z,7.17
2023-04-27T06:39:24.921Z,5.30
2023-04-27T06:41:52.621Z,5.27
2023-04-27T06:44:20.342Z,7.50
2023-04-27T06:46:48.058Z,6.87
2023-04-27T06:49:16.180Z,6.00
2023-04-27T06:51:46.683Z,6.23
2023-04-27T06:54:14.509Z,7.93
2023-04-27T06:56:42.248Z,4.63
2023-04-27T06:59:10.144Z,3.30
2023-04-27T07:01:38.286Z,6.57
2023-04-27T07:04:06.585Z,8.53
2023-04-27T07:06:34.464Z,7.33
2023-04-27T07:09:13.286Z,8.47
2023-04-27T07:11:48.137Z,3.00
2023-04-27T07:14:15.984Z,7.80
2023-04-27T07:16:44.156Z,4.93
2023-04-27T07:19:11.987Z,4.10
2023-04-27T07:21:39.966Z,8.07
2023-04-27T07:24:09.564Z,5.03
2023-04-27T07:26:37.599Z,3.07
2023-04-27T07:29:14.369Z,9.77
2023-04-27T07:31:42.457Z,8.73
2023-04-27T07:34:11.367Z,12.57
2023-04-27T07:36:40.143Z,5.13
2023-04-27T07:39:09.347Z,4.73
2023-04-27T07:41:37.095Z,5.47
2023-04-27T07:44:04.788Z,6.30
2023-04-27T07:46:32.851Z,6.93
2023-04-27T07:49:01.050Z,4.93
2023-04-27T07:51:29.461Z,8.93
2023-04-27T07:53:57.241Z,6.57
2023-04-27T07:56:26.289Z,6.17
2023-04-27T07:58:54.023Z,4.63
2023-04-27T08:01:22.300Z,5.10
2023-04-27T08:03:50.193Z,4.23
2023-04-27T08:06:19.763Z,4.87
2023-04-27T08:08:47.633Z,5.50
2023-04-27T08:11:15.440Z,5.17
2023-04-27T08:13:44.809Z,5.93
2023-04-27T08:16:12.636Z,5.47
2023-04-27T08:18:40.363Z,11.47
2023-04-27T08:21:08.059Z,5.30
2023-04-27T08:23:37.102Z,5.70
2023-04-27T08:26:04.935Z,7.40
2023-04-27T08:28:32.674Z,8.13
2023-04-27T08:31:01.935Z,5.43
2023-04-27T08:33:29.742Z,10.47
2023-04-27T08:35:57.482Z,8.13
2023-04-27T08:38:25.712Z,4.40
2023-04-27T08:40:53.491Z,4.07
2023-04-27T08:43:21.197Z,6.03
2023-04-27T08:45:50.168Z,4.07
2023-04-27T08:48:20.287Z,4.93
2023-04-27T08:50:51.816Z,5.43
2023-04-27T08:53:19.783Z,5.03
2023-04-27T08:55:47.555Z,6.23
2023-04-27T08:58:15.711Z,11.23
2023-04-27T09:00:45.169Z,8.30
2023-04-27T09:03:23.918Z,5.87
2023-04-27T09:06:03.841Z,6.00
2023-04-27T09:08:42.789Z,6.37
2023-04-27T09:11:10.492Z,2.63
2023-04-27T09:13:38.578Z,5.87
2023-04-27T09:16:07.056Z,4.77
2023-04-27T09:18:38.577Z,5.50
2023-04-27T09:21:07.172Z,6.23
2023-04-27T09:23:36.616Z,4.03
2023-04-27T09:26:08.101Z,6.00
2023-04-27T09:28:38.474Z,4.50
2023-04-27T09:31:09.176Z,5.40
2023-04-27T09:33:38.572Z,7.30
2023-04-27T09:36:08.041Z,7.27
2023-04-27T09:38:35.958Z,7.90
2023-04-27T09:41:04.295Z,4.40
2023-04-27T09:43:32.519Z,4.50
2023-04-27T09:46:00.389Z,5.37
2023-04-27T09:48:28.193Z,5.67
2023-04-27T09:50:57.494Z,7.03
2023-04-27T09:53:38.713Z,12.57
2023-04-27T09:56:26.165Z,6.47
2023-04-27T09:59:04.247Z,7.80
2023-04-27T10:01:37.703Z,5.20
2023-04-27T10:04:15.869Z,4.57
2023-04-27T10:06:59.184Z,5.17
2023-04-27T10:09:27.546Z,6.63
2023-04-27T10:11:56.181Z,4.33
2023-04-27T10:14:25.194Z,7.53
2023-04-27T10:16:54.127Z,4.23
2023-04-27T10:19:22.539Z,6.27
2023-04-27T10:21:57.889Z,5.07
2023-04-27T10:24:38.356Z,4.03
2023-04-27T10:27:07.866Z,7.00
2023-04-27T10:29:39.826Z,4.67
2023-04-27T10:32:08.917Z,7.43
2023-04-27T10:34:37.569Z,5.03
2023-04-27T10:37:11.862Z,4.60
2023-04-27T10:39:48.796Z,3.67
2023-04-27T10:42:28.176Z,6.67
2023-04-27T10:44:58.154Z,7.03
2023-04-27T10:47:26.821Z,4.73
2023-04-27T10:49:55.409Z,6.93
2023-04-27T10:52:24.945Z,7.33
2023-04-27T10:54:52.652Z,8.70
2023-04-27T10:57:20.357Z,6.10
2023-04-27T10:59:52.525Z,4.07
2023-04-27T11:02:27.407Z,7.17
2023-04-27T11:04:56.680Z,5.33
2023-04-27T11:07:27.654Z,5.97
2023-04-27T11:09:55.889Z,9.80
2023-04-27T11:12:24.134Z,6.47
2023-04-27T11:14:51.961Z,4.23
2023-04-27T11:17:29.951Z,3.47
2023-04-27T11:19:57.738Z,6.37
2023-04-27T11:22:26.970Z,5.10
2023-04-27T11:24:54.886Z,3.90
2023-04-27T11:27:24.127Z,4.67
2023-04-27T11:29:51.839Z,4.93
2023-04-27T11:32:20.899Z,6.20
2023-04-27T11:34:53.588Z,4.93
2023-04-27T11:37:23.923Z,4.90
2023-04-27T11:39:54.093Z,7.03
2023-04-27T11:42:22.942Z,3.40
2023-04-27T11:44:54.627Z,5.77
2023-04-27T11:47:22.967Z,6.50
2023-04-27T11:49:51.712Z,6.37
2023-04-27T11:52:19.409Z,3.27
2023-04-27T11:54:51.168Z,5.13
2023-04-27T11:57:24.924Z,3.53
2023-04-27T11:59:53.002Z,7.23
2023-04-27T12:02:22.028Z,3.13
2023-04-27T12:04:50.250Z,4.60
2023-04-27T12:07:18.363Z,5.93
2023-04-27T12:09:46.113Z,8.50
2023-04-27T12:12:14.582Z,3.93
2023-04-27T12:14:44.251Z,4.27
2023-04-27T12:17:12.008Z,5.87
2023-04-27T12:19:39.816Z,6.70
2023-04-27T12:22:08.485Z,5.17
2023-04-27T12:24:36.285Z,6.17
2023-04-27T12:27:04.493Z,7.43
2023-04-27T12:29:32.718Z,6.13
2023-04-27T12:32:01.893Z,5.00
2023-04-27T12:34:29.590Z,7.10
2023-04-27T12:36:57.390Z,8.70
2023-04-27T12:39:25.755Z,4.37
2023-04-27T12:41:54.876Z,7.23
2023-04-27T12:44:22.757Z,9.73
2023-04-27T12:46:50.765Z,7.23
2023-04-27T12:49:19.890Z,5.63
2023-04-27T12:51:47.987Z,6.50
2023-04-27T12:54:16.020Z,5.83
2023-04-27T12:56:44.092Z,3.70
2023-04-27T12:59:11.997Z,9.27
2023-04-27T13:01:39.795Z,4.97
2023-04-27T13:04:09.073Z,7.17
2023-04-27T13:06:38.374Z,7.03
2023-04-27T13:09:06.782Z,4.33
2023-04-27T13:11:34.482Z,4.83
2023-04-27T13:14:02.211Z,4.47
2023-04-27T13:16:29.920Z,4.53
2023-04-27T13:18:57.695Z,4.97
2023-04-27T13:21:25.519Z,4.97
2023-04-27T13:23:54.934Z,4.50
2023-04-27T13:26:22.650Z,7.00
2023-04-27T13:28:50.590Z,4.47
2023-04-27T13:31:18.310Z,6.27
2023-04-27T13:33:46.296Z,4.40
2023-04-27T13:36:14.672Z,4.03
2023-04-27T13:38:42.369Z,5.33
2023-04-27T13:41:11.476Z,7.23
2023-04-27T13:43:39.314Z,6.47
2023-04-27T13:46:07.547Z,4.80
2023-04-27T13:48:35.432Z,5.50
2023-04-27T13:51:03.208Z,5.17
2023-04-27T13:53:31.050Z,5.30
2023-04-27T13:55:59.128Z,3.80
2023-04-27T13:58:29.072Z,4.37
2023-04-27T14:00:57.264Z,7.33
2023-04-27T14:03:25.247Z,4.73
2023-04-27T14:05:53.151Z,5.63
2023-04-27T14:08:21.182Z,4.60
2023-04-27T14:10:49.439Z,5.33
2023-04-27T14:13:19.243Z,6.67
2023-04-27T14:15:48.492Z,4.40
2023-04-27T14:18:16.588Z,8.27
2023-04-27T14:20:45.833Z,8.97
2023-04-27T14:23:13.663Z,6.60
2023-04-27T14:25:41.921Z,5.60
2023-04-27T14:28:10.757Z,6.03
2023-04-27T14:30:38.486Z,5.97
2023-04-27T14:33:07.789Z,6.70
2023-04-27T14:35:37.094Z,10.70
2023-04-27T14:38:05.398Z,5.43
2023-04-27T14:40:33.576Z,5.30
2023-04-27T14:43:01.533Z,7.73
2023-04-27T14:45:39.791Z,6.60
2023-04-27T14:48:17.069Z,5.43
2023-04-27T14:50:44.812Z,8.33
2023-04-27T14:53:12.624Z,6.27
2023-04-27T14:55:41.178Z,5.70
2023-04-27T14:58:09.001Z,7.70
2023-04-27T15:00:36.859Z,6.53
2023-04-27T15:03:04.814Z,6.53
2023-04-27T15:05:34.047Z,5.23
2023-04-27T15:08:02.130Z,6.37
2023-04-27T15:10:29.923Z,5.07
2023-04-27T15:12:57.659Z,8.13
2023-04-27T15:15:25.552Z,9.20
2023-04-27T15:17:53.367Z,7.37
2023-04-27T15:20:21.363Z,7.97
2023-04-27T15:22:50.424Z,8.50
2023-04-27T15:25:18.380Z,6.83
2023-04-27T15:27:46.143Z,6.80
2023-04-27T15:30:15.026Z,6.37
2023-04-27T15:32:42.767Z,6.10
2023-04-27T15:35:10.703Z,7.47
2023-04-27T15:37:38.492Z,6.73
2023-04-27T15:40:10.022Z,5.83
2023-04-27T15:42:38.546Z,8.33
2023-04-27T15:45:09.761Z,6.97
2023-04-27T15:47:37.842Z,5.67
2023-04-27T15:50:06.662Z,7.07
2023-04-27T15:52:34.440Z,8.27
2023-04-27T15:55:04.279Z,7.17
2023-04-27T15:57:33.441Z,7.73
2023-04-27T16:00:01.348Z,6.10
2023-04-27T16:02:29.271Z,8.73
2023-04-27T16:04:57.248Z,6.53
2023-04-27T16:07:24.975Z,5.57
2023-04-27T16:09:52.733Z,5.73
2023-04-27T16:12:20.825Z,10.33
2023-04-27T16:14:51.910Z,7.27
2023-04-27T16:17:19.710Z,7.57
2023-04-27T16:19:47.389Z,7.73
2023-04-27T16:22:15.387Z,5.90
2023-04-27T16:24:43.063Z,8.20
2023-04-27T16:27:11.598Z,5.43
2023-04-27T16:29:39.355Z,6.27
2023-04-27T16:32:08.692Z,8.00
2023-04-27T16:34:37.231Z,8.20
2023-04-27T16:37:05.155Z,7.57
2023-04-27T16:39:33.232Z,7.17
2023-04-27T16:42:00.979Z,8.03
2023-04-27T16:44:28.837Z,7.03
2023-04-27T16:46:56.544Z,8.17
2023-04-27T16:49:25.685Z,6.20
2023-04-27T16:51:54.433Z,9.13
2023-04-27T16:54:22.209Z,9.30
2023-04-27T16:56:50.226Z,8.47
2023-04-27T16:59:18.026Z,10.30
2023-04-27T17:01:45.820Z,8.47
2023-04-27T17:04:13.823Z,7.90
2023-04-27T17:06:45.297Z,7.77
2023-04-27T17:09:13.241Z,7.93
2023-04-27T17:11:41.730Z,10.13
2023-04-27T17:14:09.436Z,8.37
2023-04-27T17:16:37.271Z,8.20
2023-04-27T17:19:05.432Z,5.90
2023-04-27T17:21:33.443Z,9.57
2023-04-27T17:24:02.450Z,9.00
2023-04-27T17:26:30.247Z,7.83
2023-04-27T17:29:00.036Z,7.63
2023-04-27T17:31:28.340Z,8.13
2023-04-27T17:33:56.101Z,8.50
2023-04-27T17:36:23.978Z,7.77
2023-04-27T17:38:51.755Z,9.03
2023-04-27T17:41:21.002Z,7.17
2023-04-27T17:43:49.229Z,6.87
2023-04-27T17:46:16.975Z,10.63
2023-04-27T17:48:44.795Z,8.83
2023-04-27T17:51:12.579Z,6.07
2023-04-27T17:53:40.288Z,9.80
2023-04-27T17:56:08.161Z,8.23
2023-04-27T17:58:37.695Z,6.73
2023-04-27T18:01:06.024Z,14.50
2023-04-27T18:03:33.991Z,8.77
2023-04-27T18:06:01.879Z,5.13
2023-04-27T18:08:29.756Z,4.77
2023-04-27T18:10:57.503Z,7.80
2023-04-27T18:13:26.452Z,6.43
2023-04-27T18:15:55.559Z,8.07
2023-04-27T18:18:25.289Z,7.03
2023-04-27T18:20:53.300Z,7.13
2023-04-27T18:23:21.232Z,7.40
2023-04-27T18:25:48.976Z,6.33
2023-04-27T18:28:16.837Z,9.93
2023-04-27T18:30:44.671Z,5.50
2023-04-27T18:33:13.903Z,10.23
2023-04-27T18:35:41.714Z,9.10
2023-04-27T18:38:09.444Z,7.87
2023-04-27T18:40:37.741Z,7.40
2023-04-27T18:43:05.702Z,11.10
2023-04-27T18:45:34.321Z,11.20
2023-04-27T18:48:02.113Z,8.50
2023-04-27T18:50:31.669Z,6.97
2023-04-27T18:53:00.160Z,15.27
2023-04-27T18:55:27.864Z,8.40
2023-04-27T18:57:55.570Z,11.10
2023-04-27T19:00:23.580Z,7.70
2023-04-27T19:02:52.687Z,7.47
2023-04-27T19:05:20.729Z,6.43
2023-04-27T19:07:49.969Z,7.67
2023-04-27T19:10:17.731Z,7.87
2023-04-27T19:12:45.576Z,8.60
2023-04-27T19:15:13.980Z,7.83
2023-04-27T19:17:41.812Z,8.93
2023-04-27T19:20:10.272Z,9.30
2023-04-27T19:22:38.309Z,7.10
2023-04-27T19:25:09.501Z,9.47
2023-04-27T19:27:37.474Z,10.60
2023-04-27T19:30:06.055Z,9.73
2023-04-27T19:32:34.394Z,6.37
2023-04-27T19:35:02.557Z,6.97
2023-04-27T19:37:30.366Z,7.97
2023-04-27T19:39:58.095Z,9.03
2023-04-27T19:42:27.248Z,7.97
2023-04-27T19:44:55.818Z,7.13
2023-04-27T19:47:24.272Z,8.30
2023-04-27T19:49:52.150Z,7.47
2023-04-27T19:52:20.017Z,5.17
2023-04-27T19:54:52.273Z,13.50
2023-04-27T19:57:20.160Z,9.67
2023-04-27T19:59:49.252Z,7.10
2023-04-27T20:02:17.228Z,9.33
2023-04-27T20:04:45.456Z,8.10
2023-04-27T20:07:13.297Z,6.20
2023-04-27T20:09:41.014Z,8.30
2023-04-27T20:12:19.397Z,15.03
2023-04-27T20:14:57.886Z,8.20
2023-04-27T20:17:27.210Z,7.43
2023-04-27T20:19:57.053Z,8.33
2023-04-27T20:22:25.021Z,7.97
2023-04-27T20:24:52.899Z,7.50
2023-04-27T20:27:20.719Z,8.00
2023-04-27T20:29:48.424Z,11.37
2023-04-27T20:32:17.630Z,25.47
2023-04-27T20:34:45.422Z,10.60
2023-04-27T20:37:13.579Z,8.40
2023-04-27T20:39:41.510Z,8.70
2023-04-27T20:42:09.365Z,6.70
2023-04-27T20:44:39.039Z,7.23
2023-04-27T20:47:07.001Z,8.97
2023-04-27T20:49:36.216Z,8.33
2023-04-27T20:52:04.149Z,8.00
2023-04-27T20:54:32.856Z,6.97
2023-04-27T20:57:02.272Z,6.97
2023-04-27T20:59:30.167Z,10.47
2023-04-27T21:01:57.845Z,6.77
2023-04-27T21:04:25.824Z,4.97
2023-04-27T21:06:55.161Z,8.63
2023-04-27T21:09:22.940Z,9.00
2023-04-27T21:11:50.681Z,7.67
2023-04-27T21:14:18.398Z,7.20
2023-04-27T21:16:46.307Z,11.63
2023-04-27T21:19:16.148Z,8.83
2023-04-27T21:21:43.930Z,7.10
2023-04-27T21:24:13.016Z,11.77
2023-04-27T21:26:42.341Z,8.03
2023-04-27T21:29:10.260Z,10.80
2023-04-27T21:31:38.066Z,9.97
2023-04-27T21:34:05.947Z,11.87
2023-04-27T21:36:33.984Z,13.63
2023-04-27T21:39:01.685Z,10.77
2023-04-27T21:41:30.756Z,11.37
2023-04-27T21:43:58.509Z,12.47
2023-04-27T21:46:26.344Z,11.53
2023-04-27T21:48:54.116Z,10.97
2023-04-27T21:51:22.250Z,11.90
2023-04-27T21:53:49.989Z,10.97
2023-04-27T21:56:17.714Z,13.23
2023-04-27T21:58:46.916Z,13.07
2023-04-27T22:01:14.658Z,11.57
2023-04-27T22:03:42.518Z,10.17
2023-04-27T22:06:10.742Z,8.63
2023-04-27T22:08:38.547Z,10.13
2023-04-27T22:11:06.504Z,11.87
2023-04-27T22:13:34.265Z,17.97
2023-04-27T22:16:03.428Z,6.23
2023-04-27T22:18:31.164Z,9.43
2023-04-27T22:20:59.084Z,14.73
2023-04-27T22:23:26.810Z,11.20
2023-04-27T22:25:54.592Z,14.07
2023-04-27T22:28:22.305Z,12.47
2023-04-27T22:30:50.034Z,10.70
2023-04-27T22:33:19.219Z,13.57
2023-04-27T22:35:46.949Z,11.77
2023-04-27T22:38:15.457Z,10.93
2023-04-27T22:40:43.188Z,14.50
2023-04-27T22:43:11.274Z,13.60
2023-04-27T22:45:40.130Z,10.67
2023-04-27T22:48:08.029Z,16.33
2023-04-27T22:50:37.300Z,17.57
2023-04-27T22:53:05.008Z,10.70
2023-04-27T22:55:32.729Z,19.13
2023-04-27T22:58:00.521Z,15.93
2023-04-27T23:00:28.274Z,12.67
2023-04-27T23:02:56.181Z,11.20
2023-04-27T23:05:24.316Z,11.97
2023-04-27T23:07:53.422Z,18.40
2023-04-27T23:10:21.490Z,12.57
2023-04-27T23:12:49.212Z,14.63
2023-04-27T23:15:17.187Z,15.40
2023-04-27T23:17:44.854Z,19.33
2023-04-27T23:20:26.562Z,14.27
2023-04-27T23:22:56.966Z,17.07
2023-04-27T23:25:24.899Z,16.17
2023-04-27T23:27:53.131Z,15.33
2023-04-27T23:30:21.629Z,16.27
2023-04-27T23:32:49.438Z,19.17
2023-04-27T23:35:17.237Z,13.10
2023-04-27T23:37:45.006Z,15.03
2023-04-27T23:40:14.349Z,14.47
2023-04-27T23:42:42.099Z,19.50
2023-04-27T23:45:10.433Z,12.97
2023-04-27T23:47:38.234Z,15.90
2023-04-27T23:50:07.080Z,17.27
2023-04-27T23:52:34.832Z,20.17
2023-04-27T23:55:02.556Z,17.90
2023-04-27T23:57:31.754Z,14.27
2023-04-27T23:59:59.490Z,15.73
